メインページ
METAR-TAF:

METAR-TAF

空港 :

ヤップ州, ミクロネシア

ヤップ国際空港

緯度: 09-29N, 経度: 138-05E, 海抜: 28m

現時点の気象観測

当レポートは46分前の09:50(UTC)に作成
東/北東の風 9kt
気温 28°C
湿度 84%
気圧 1011 hPa
視程: 19.3km
高度1600ftの千切れ雲あり, 積乱雲.
高度13000ftの千切れ雲あり
高度30000ftの曇り

METAR: PTYA 230950Z 06009KT 12SM BKN016CB BKN130 OVC300 28/25 A2984 RMK SHRAE30 CB ALQDS SLP105 T02760254

時間: 20:36 (10:36 UTC)

予報

当レポートは2時間54分前の07:42(UTC)に作成
予報は23日の 08時(UTC)から 24日の 06時(UTC)まで有効
東/北東の風 10kt
視程: 10km
高度1500ftの雲は散在している, 積乱雲.
高度3000ftの雲は散在している
高度13000ftの千切れ雲あり
近辺で激しい雷雨
23日の 08時(UTC)から 23日の 12時(UTC)まで一時的に
変向風 12kt、最大22ktの突風を伴う
視程: 3.2km
高度1500ftの曇り, 積乱雲.
激しい雷雨, 雨
23日の 1300時(UTC)から
の風 8kt
視程: 10km
高度1600ftの雲は散在している
高度3000ftの雲は散在している
高度13000ftの千切れ雲あり
近辺でにわか雨

TAF: PTYA 230742Z 2308/2406 07010KT P6SM VCTS SCT015CB SCT030 BKN130 TEMPO 2308/2312 VRB12G22KT 2SM TSRA OVC015CB FM231300 09008KT P6SM VCSH SCT016 SCT030 BKN130

4,000以上の空港の気象観測と天気予報(METAR報とTAF報)

利用可能な観測所は地図上に黄色い丸と赤い丸で示す。

丸の上にカーソルを重ねると観測所名を参照できる。

次にクリックすると気象観測と天気予報を参照できる。

マップの切り替え:黒色「×」印の緑ボタンをクリックして拡大、「-」印の緑ボタンをクリックして縮小、緑色の三角印をクリックして隣りの地図に切り替え


METAR-TAF: